Ladd AAF Airfield
PAFB : now visible

Airfield :











YOU CAN JOIN US ON...

 
LOGIN :

Register | Disclaimer

   EN    FR    IT 

 









Legend :    VFR   Marginal VFR   IFR   Intensive IFR   Very Intensive IFR
Visi :
Ceiling :
>= 8 km
>= 3000ft
5 to 8 km
1000 to 3000 ft
1500m to 5 km
500 to 1000 ft
800 to 1500m
200 to 500 ft
< 800m
< 200 ft
Symbols :   Thunderstorms  Fog  Heavy snow  Heavy precipitations  Wind > 20 kt






- Airport Elevation : 454 ft
- IATA code : FBK


PAFB - Ladd AAF

CURRENT METAR :
  • 151858Z 03004KT 7SM SCT150 M05/M12 A2944 RMK AO2A SLPNO WND DATA ESTMD ALSTG/SLP ESTMD

EXPIRED METARs :
  • 151758Z 06003KT 7SM SCT150 M06/M14 A2944 RMK AO2A SLPNO WND DATA ESTMD ALSTG/SLP ESTMD
  • 151658Z 05004KT 7SM FEW150 M07/M14 A2952 RMK AO2A SLP982 WND DATA ESTMD ALSTG/SLP ESTMD

TAF COR TAF PAFB
Valid from the 15 at 15:00 until the 16 at 21:00 UTC


151515Z 1515/1621 06009KT 9999 SKC QNH2950INS
BECMG 1603/1604 06009KT 9999 SCT020 SCT100 QNH2944INS
BECMG 1606/1607 08009KT 9999 SCT020 BKN100 QNH2940INS
BECMG 1615/1616 09006KT 9999 BKN020 BKN150 620209 QNH2932INS TX01/1523Z TNM08/1517Z



MET'MAP, your aeronautical weather chart ! - Copyright ORBIFLY December 2007 - Disclaimer

ORBIFLY MET'MAP TEAM :

Programming & Development : Alexandra Zaïnal
Concept & Development : Baudouin d'Aumeries
Co-Development & Prog : Marc-Olivier Méhu
Technical & hardware support : Manuel Goepfert

Contact : metmap@orbifly.com




SOURCES & CREDITS :

   NOAA       Earth
Advisory